Aérodrome :
LOGIN :

S'inscrire | Disclaimer

   EN    FR    IT 

 










Légende :    VFR   VFR Marginal   IFR   IFR Intensif   IFR Très Intensif
Visi : 
Plafond : 
>= 8 km
>= 3000ft
5 à 8 km
1000 à 3000 ft
1500m à 5 km
500 à 1000 ft
800 à 1500m
200 à 500 ft
< 800m
< 200 ft
Symboles :   Orages  Brouillard  Fortes neiges  Fortes précipitations  Vent > 20 kt
SIGMETs :   Divers  Orages  Givrage  Turbulence  Onde Orograph.  Cendres Volcan.






- Altitude de l'aérodrome : 1521 ft
- Code IATA : NCY


LFLP - Annecy

DERNIER METAR :
  • 230730Z AUTO 01007KT 350V050 CAVOK 14/11 Q1014 NOSIG

METARs EXPIRÉS :
  • 230700Z AUTO 01006KT 340V040 CAVOK 13/10 Q1014 NOSIG
  • 230630Z AUTO 01007KT 320V050 CAVOK 12/10 Q1014
  • 230600Z AUTO 36006KT 300V060 CAVOK 12/10 Q1014
  • 230530Z AUTO 01006KT 330V040 CAVOK 12/10 Q1014
  • 230500Z AUTO 01008KT CAVOK 13/10 Q1014

TAF TAF LFLP
Valide du 23 à 03h jusqu'au 24 à 03h UTC


230200Z 2303/2403 VRB02KT CAVOK



MET'MAP, la Météo Aéronautique d'un coup d'oeil ! - Copyright ORBIFLY Décembre 2007 - Disclaimer

ORBIFLY MET'MAP TEAM :

Programmation & Développement : Alexandra Zaïnal
Conception & Développement : Baudouin d'Aumeries
Co-Programmation & Développement : Marc-Olivier Méhu
Soutien technique & logistique : Manuel Goepfert

Contact : metmap@orbifly.com




SOURCES & CREDITS :

   NOAA